Bruceton Mills, West Virginia
Current Conditions -  °F | °C
As of 8:53 PM on Wednesday 22 Oct 2014 (Local Time) from KMGW Reporting Station
Overcast Overcast  
Wind Chill: 50°   Ceiling: 2000
Heat Index: 50°   Visibility: 10mi
Dew Point: 40°   Wind: 8mph
Humidity: 68%   Direction: 320°NW
Pressure: 30.17"   Gusts: 17mph
Location:  39.66°N, 79.64°W
Report Text: KMGW 230053Z 32007G15KT 290V350 10SM OVC020 10/04 A3017 RMK AO2 SLP221 T01000044
Loading
Personal Weather Stations






























Interactive Weather Map
Tropical Storm Tracking
New forecast layout! Learn more

10-Day Weather Forecast

Advertisements
Track Severe Weather on mobile